الصفحة الرئيسية
METAR-TAF:

METAR-TAF

مطار :

Sedona, أريزونا, الولايات المتحدة

دائرة عرض: 34-51N, خط طول: 111-47W, ارتفاع: 1471 متر

مراقبة الطقس الحالي

تاريخ ووقت الإصدار 24 دقيقة قبل الساعة 11:35UTC
ريح 12 عقدة من الشمال/الشمال الشرقي
درجة الحرارة 12°درجة مئوية
الرطوبة 47%
ضغط 1021 hPa
الرؤية: 16.1 كم
سماء صافية

METAR: KSEZ 151135Z AUTO 02012KT 10SM CLR 12/01 A3015 RMK AO2

زمن: 04:59 (11:59 UTC)

توقعات

تاريخ ووقت الإصدار 39 دقيقة قبل الساعة 11:20UTC
التوقعات صالحة من15 الساعة 12 UTC إلى 16 الساعة 12 UTC
ريح 9 عقدة من الشمال الشرقي
الرؤية: 10 كم
سماء صافية
من 15 الساعة 1500 UTC
ريح 5 عقدةمن اتجاهات متغيرة
الرؤية: 10 كم
سماء صافية
من 16 الساعة 0400 UTC
ريح 10 عقدة من الشمال الشرقي
الرؤية: 10 كم
سماء صافية

TAF: KSEZ 151120Z 1512/1612 04009KT P6SM SKC FM151500 VRB05KT P6SM SKC FM160400 04010KT P6SM SKC

أرصاد الطقس والتوقعات من أكثر من 4000 مطار (تقارير الطقس للمطار METAR والتنبؤ بالطقس بالمطارTAF).

المحطات المتاحة هي النقط الصفراء والحمراء على الخريطة.

حرك المؤشر فوق النقطة لمعرفة اسم المحطة.

ثم انقر لمعرفة أرصاد وتوقعات الطقس.

لتغيير الخارطة: اضغط على الأزرار الخضراء مع رمز الصليب الأسود للتكبير. على الزر الأخضر مع شرطة للتصغير، أو على الأسهم الخضراء للخرائط المجاورة.


METAR-TAF: